Terminal Aerodrome Forecast
Issued by NWS Nashville, TN

Home | Current Version | Previous Version | Text Only | Print | Product List | Glossary On
Versions: 1 2 3 4 5 6 7 8 9 10 11 12 13 14 15 16 17 18 19 20 21 22 23 24 25 26 27 28 29 30 31 32 33 34
000
FTUS44 KOHX 230000 AAA
TAFBNA
TAF AMD
KBNA 230000Z 2300/2324 04010KT P6SM OVC100
      TEMPO 2300/2301 03013G22KT 4SM RA BR OVC035
     FM230300 34012G20KT P6SM OVC040
     FM230700 33016G25KT P6SM VCSH OVC025
     FM231200 32015G23KT P6SM OVC020=

USA.gov is the U.S. government's official web portal to all federal, state and local government web resources and services.